Time;durP1;ratioP1;P1;durP2;ratioP2;P2;SDS_P1;SDS_P2;PMS_P1;PMS_P2;Temp;Humidity;BMP_temperature;BMP_pressure;BME280_temperature;BME280_humidity;BME280_pressure;Samples;Min_cycle;Max_cycle;Signal;HPM_P1;HPM_P2
2022/09/27 00:02:21;;;;;;;0.10;0.10;;;12.70;99.90;;;;;;5008064;28;20061;-77
2022/09/27 00:04:48;;;;;;;0.10;0.10;;;12.70;99.90;;;;;;5008163;28;20038;-77
2022/09/27 00:07:14;;;;;;;0.20;0.20;;;12.70;99.90;;;;;;5003951;28;20022;-77
2022/09/27 00:09:40;;;;;;;0.10;0.10;;;12.70;99.90;;;;;;5004198;28;20034;-77
2022/09/27 00:12:05;;;;;;;0.10;0.10;;;12.60;99.90;;;;;;5002413;28;20060;-78
2022/09/27 00:14:31;;;;;;;1.65;1.65;;;12.60;99.90;;;;;;5004532;28;20053;-77
2022/09/27 00:16:57;;;;;;;0.10;0.10;;;12.60;99.90;;;;;;5002185;28;20026;-78
2022/09/27 00:19:24;;;;;;;0.10;0.10;;;12.50;99.90;;;;;;5002303;28;20045;-79
2022/09/27 00:21:50;;;;;;;0.10;0.10;;;12.50;99.90;;;;;;5007320;28;20536;-77
2022/09/27 00:24:19;;;;;;;0.10;0.10;;;12.40;99.90;;;;;;5012376;28;20038;-78
2022/09/27 00:26:46;;;;;;;0.10;0.10;;;12.40;99.90;;;;;;5011873;28;20084;-78
2022/09/27 00:29:13;;;;;;;0.10;0.10;;;12.40;99.90;;;;;;5010623;28;20028;-80
2022/09/27 00:31:39;;;;;;;0.57;0.57;;;12.30;99.90;;;;;;5003607;28;20034;-78
2022/09/27 00:34:06;;;;;;;0.10;0.10;;;12.30;99.90;;;;;;5003657;28;20688;-77
2022/09/27 00:36:33;;;;;;;0.10;0.10;;;12.30;99.90;;;;;;5002433;28;20048;-77
2022/09/27 00:39:00;;;;;;;0.10;0.10;;;12.30;99.90;;;;;;5003277;28;20246;-77
2022/09/27 00:41:31;;;;;;;0.10;0.10;;;12.30;99.90;;;;;;5003541;28;20041;-77
2022/09/27 00:44:03;;;;;;;0.10;0.10;;;12.20;99.90;;;;;;5003287;28;20050;-78
2022/09/27 00:46:45;;;;;;;0.10;0.10;;;12.20;99.90;;;;;;5002403;28;20022;-77
2022/09/27 00:49:17;;;;;;;0.10;0.10;;;12.20;99.90;;;;;;5001466;28;20054;-77
2022/09/27 00:51:46;;;;;;;0.10;0.10;;;12.20;99.90;;;;;;5003096;28;20026;-77
2022/09/27 00:54:15;;;;;;;0.10;0.10;;;12.10;99.90;;;;;;5001555;28;20018;-77
2022/09/27 00:56:42;;;;;;;0.10;0.10;;;12.10;99.90;;;;;;5002244;28;20076;-77
2022/09/27 00:59:15;;;;;;;0.10;0.10;;;12.10;99.90;;;;;;5004215;28;20010;-77
2022/09/27 01:01:41;;;;;;;0.10;0.10;;;12.10;99.90;;;;;;5003794;28;20050;-77
2022/09/27 01:04:08;;;;;;;0.77;0.77;;;12.10;99.90;;;;;;5001231;28;20022;-78
2022/09/27 01:06:36;;;;;;;0.20;0.20;;;12.10;99.90;;;;;;5003569;28;20076;-77
2022/09/27 01:09:02;;;;;;;0.10;0.10;;;12.10;99.90;;;;;;5004194;28;20022;-77
2022/09/27 01:11:34;;;;;;;0.10;0.10;;;12.10;99.90;;;;;;5004365;28;20506;-77
2022/09/27 01:14:09;;;;;;;0.17;0.17;;;12.10;99.90;;;;;;5004283;28;20018;-77
2022/09/27 01:16:46;;;;;;;0.10;0.10;;;12.20;99.90;;;;;;5003661;28;20119;-77
2022/09/27 01:19:36;;;;;;;0.10;0.10;;;12.20;99.90;;;;;;5004105;28;20545;-77
2022/09/27 01:22:20;;;;;;;0.10;0.10;;;12.20;99.90;;;;;;5006065;28;20041;-76
2022/09/27 01:24:58;;;;;;;0.10;0.10;;;12.10;99.90;;;;;;5006102;28;20029;-77
2022/09/27 01:27:26;;;;;;;0.10;0.10;;;12.20;99.90;;;;;;5005630;28;20298;-77
2022/09/27 01:30:12;;;;;;;0.10;0.10;;;12.20;99.90;;;;;;5006324;28;20014;-77
2022/09/27 01:32:48;;;;;;;0.10;0.10;;;12.20;99.90;;;;;;5007467;28;20113;-76
2022/09/27 01:35:50;;;;;;;0.10;0.10;;;12.10;99.90;;;;;;5005362;28;20022;-78
2022/09/27 01:38:30;;;;;;;0.10;0.10;;;14.10;99.90;;;;;;5002719;28;20089;-77
2022/09/27 01:41:14;;;;;;;0.10;0.10;;;12.10;99.90;;;;;;5002690;28;20034;-77
2022/09/27 01:43:48;;;;;;;0.17;0.17;;;12.00;99.90;;;;;;5001894;28;20050;-77
2022/09/27 01:46:51;;;;;;;0.10;0.10;;;12.00;99.90;;;;;;5003982;28;20084;-78
2022/09/27 01:49:26;;;;;;;0.10;0.10;;;12.00;99.90;;;;;;5002164;28;20248;-77
2022/09/27 01:52:00;;;;;;;0.10;0.10;;;12.00;99.90;;;;;;5008426;28;20096;-77
2022/09/27 01:54:40;;;;;;;0.10;0.10;;;12.10;99.90;;;;;;5008551;28;20117;-77
2022/09/27 01:57:09;;;;;;;0.10;0.10;;;12.00;99.90;;;;;;5007613;28;20265;-77
2022/09/27 02:00:05;;;;;;;0.10;0.10;;;12.00;99.90;;;;;;5006331;28;20187;-77
2022/09/27 02:02:37;;;;;;;0.10;0.10;;;12.00;99.90;;;;;;5011325;28;20046;-78
2022/09/27 02:05:07;;;;;;;5.95;5.30;;;12.00;99.90;;;;;;5007827;28;20137;-79
2022/09/27 02:07:56;;;;;;;0.10;0.10;;;12.00;99.90;;;;;;5008879;28;20026;-78
2022/09/27 02:10:29;;;;;;;0.10;0.10;;;12.10;99.90;;;;;;5007533;28;20087;-80
2022/09/27 02:13:01;;;;;;;0.10;0.10;;;12.00;99.90;;;;;;5000590;28;20428;-77
2022/09/27 02:15:33;;;;;;;0.10;0.10;;;12.00;99.90;;;;;;5001570;28;20029;-78
2022/09/27 02:18:03;;;;;;;0.10;0.10;;;12.10;99.90;;;;;;5000069;28;20133;-78
2022/09/27 02:20:30;;;;;;;0.10;0.10;;;12.10;99.90;;;;;;5001484;28;20104;-77
2022/09/27 02:23:07;;;;;;;0.20;0.20;;;12.10;99.90;;;;;;5001263;28;20568;-77
2022/09/27 02:25:53;;;;;;;0.10;0.10;;;12.00;99.90;;;;;;5001649;28;20014;-77
2022/09/27 02:28:19;;;;;;;0.10;0.10;;;12.00;99.90;;;;;;5001541;28;20057;-78
2022/09/27 02:30:45;;;;;;;0.10;0.10;;;12.00;99.90;;;;;;4999882;28;20053;-78
2022/09/27 02:33:11;;;;;;;0.10;0.10;;;12.00;99.90;;;;;;4999941;28;20037;-78
2022/09/27 02:35:37;;;;;;;0.10;0.10;;;12.00;99.90;;;;;;5001988;28;20040;-77
2022/09/27 02:38:05;;;;;;;0.10;0.10;;;12.00;99.90;;;;;;5001496;28;20338;-77
2022/09/27 02:40:34;;;;;;;0.10;0.10;;;12.00;99.90;;;;;;5001548;28;20298;-77
2022/09/27 02:43:04;;;;;;;0.10;0.10;;;13.60;99.90;;;;;;5001607;28;20806;-77
2022/09/27 02:45:55;;;;;;;0.15;0.15;;;12.00;99.90;;;;;;5000678;28;20045;-77
2022/09/27 02:48:43;;;;;;;0.13;0.13;;;12.00;99.90;;;;;;5002336;28;20034;-77
2022/09/27 02:51:29;;;;;;;0.17;0.17;;;11.90;99.90;;;;;;5003525;28;20022;-78
2022/09/27 02:54:10;;;;;;;0.47;0.47;;;10.00;99.90;;;;;;5004407;28;20525;-77
2022/09/27 02:56:45;;;;;;;0.10;0.10;;;11.90;99.90;;;;;;5001628;28;20034;-77
2022/09/27 02:59:17;;;;;;;3.33;3.20;;;11.90;99.90;;;;;;5002574;28;20081;-77
2022/09/27 03:02:08;;;;;;;0.10;0.10;;;11.90;99.90;;;;;;5001021;28;20310;-77
2022/09/27 03:04:46;;;;;;;0.10;0.10;;;11.80;99.90;;;;;;4999943;28;20520;-77
2022/09/27 03:07:14;;;;;;;0.10;0.10;;;11.80;99.90;;;;;;5003083;28;20082;-77
2022/09/27 03:09:47;;;;;;;0.10;0.10;;;11.80;99.90;;;;;;5000732;28;20188;-76
2022/09/27 03:12:12;;;;;;;0.10;0.10;;;11.80;99.90;;;;;;5000162;28;20242;-77
2022/09/27 03:14:38;;;;;;;2.47;2.38;;;11.80;99.90;;;;;;5000967;28;20029;-77
2022/09/27 03:17:05;;;;;;;0.10;0.10;;;11.80;99.90;;;;;;5002303;28;20060;-77
2022/09/27 03:19:31;;;;;;;0.10;0.10;;;11.80;99.90;;;;;;5001491;28;20022;-77
2022/09/27 03:21:57;;;;;;;0.13;0.13;;;11.80;99.90;;;;;;4999858;28;20042;-77
2022/09/27 03:24:23;;;;;;;3.85;3.72;;;11.80;99.90;;;;;;5002243;28;20133;-77
2022/09/27 03:26:49;;;;;;;0.10;0.10;;;11.70;99.90;;;;;;4983526;28;20057;-77
2022/09/27 03:29:15;;;;;;;0.10;0.10;;;11.70;99.90;;;;;;5000374;28;20354;-77
2022/09/27 03:31:42;;;;;;;0.10;0.10;;;11.80;99.90;;;;;;5002999;28;20034;-77
2022/09/27 03:34:08;;;;;;;0.10;0.10;;;11.70;99.90;;;;;;5002151;28;20101;-78
2022/09/27 03:36:33;;;;;;;0.10;0.10;;;11.80;99.90;;;;;;5001397;28;20126;-77
2022/09/27 03:39:00;;;;;;;0.10;0.10;;;11.70;99.90;;;;;;4999522;28;20088;-78
2022/09/27 03:41:25;;;;;;;0.25;0.25;;;11.70;99.90;;;;;;5001702;28;20265;-78
2022/09/27 03:43:51;;;;;;;0.10;0.10;;;11.60;99.90;;;;;;5001487;28;20089;-78
2022/09/27 03:46:17;;;;;;;0.10;0.10;;;11.60;99.90;;;;;;5002518;28;20057;-77
2022/09/27 03:48:43;;;;;;;0.10;0.10;;;11.60;99.90;;;;;;5002644;28;20042;-77
2022/09/27 03:51:11;;;;;;;0.10;0.10;;;11.60;99.90;;;;;;5001526;28;20049;-77
2022/09/27 03:53:37;;;;;;;0.20;0.20;;;11.60;99.90;;;;;;5004696;28;20501;-77
2022/09/27 03:56:03;;;;;;;0.10;0.10;;;11.60;99.90;;;;;;5003509;28;20294;-77
2022/09/27 03:58:31;;;;;;;0.10;0.10;;;11.70;99.90;;;;;;5007484;28;20058;-77
2022/09/27 04:00:57;;;;;;;0.10;0.10;;;11.70;99.90;;;;;;5000861;28;20601;-77
2022/09/27 04:03:25;;;;;;;0.10;0.10;;;11.70;99.90;;;;;;5002096;28;20277;-77
2022/09/27 04:05:59;;;;;;;0.10;0.10;;;11.70;99.90;;;;;;5000572;28;20026;-77
2022/09/27 04:08:25;;;;;;;;;;;11.70;99.90;;;;;;5000657;28;20030;-78
2022/09/27 04:10:53;;;;;;;0.10;0.10;;;11.70;99.90;;;;;;5002173;28;19941;-78
2022/09/27 04:13:20;;;;;;;0.10;0.10;;;11.70;99.90;;;;;;5003106;28;20018;-77
2022/09/27 04:15:46;;;;;;;0.10;0.10;;;11.70;99.90;;;;;;5004919;28;20033;-77
2022/09/27 04:18:12;;;;;;;0.10;0.10;;;11.80;99.90;;;;;;5004662;28;20041;-78
2022/09/27 04:20:37;;;;;;;0.10;0.10;;;11.80;99.90;;;;;;5001527;28;20048;-78
2022/09/27 04:23:04;;;;;;;0.10;0.10;;;11.90;99.90;;;;;;5003537;28;20026;-77
2022/09/27 04:25:31;;;;;;;0.10;0.10;;;11.80;99.90;;;;;;5004800;28;20112;-78
2022/09/27 04:27:59;;;;;;;0.80;0.80;;;11.80;99.90;;;;;;5005121;28;20030;-77
2022/09/27 04:30:25;;;;;;;0.10;0.10;;;11.70;99.90;;;;;;5005526;28;20073;-77
2022/09/27 04:32:51;;;;;;;5.32;5.05;;;11.70;99.90;;;;;;5005304;28;20025;-77
2022/09/27 04:38:03;;;;;;;0.10;0.10;;;11.70;99.90;;;;;;5004987;28;20037;-78
2022/09/27 04:40:32;;;;;;;0.10;0.10;;;11.70;99.90;;;;;;5006759;28;20101;-78
2022/09/27 04:42:58;;;;;;;0.10;0.10;;;11.70;99.90;;;;;;5005873;28;20298;-76
2022/09/27 04:45:24;;;;;;;0.10;0.10;;;11.80;99.90;;;;;;5008415;28;20066;-77
2022/09/27 04:47:50;;;;;;;1.65;1.55;;;11.80;99.90;;;;;;5010472;28;20026;-80
2022/09/27 04:50:18;;;;;;;0.10;0.10;;;11.80;99.90;;;;;;5011757;28;20026;-77
2022/09/27 04:52:52;;;;;;;0.10;0.10;;;11.80;99.90;;;;;;5004600;28;20030;-78
2022/09/27 04:55:21;;;;;;;0.28;0.28;;;11.80;99.90;;;;;;5007873;28;20030;-77
2022/09/27 04:57:48;;;;;;;0.10;0.10;;;11.90;99.90;;;;;;5009068;28;20022;-77
2022/09/27 05:00:14;;;;;;;0.10;0.10;;;11.90;99.90;;;;;;5005921;28;20192;-79
2022/09/27 05:02:43;;;;;;;0.10;0.10;;;11.90;99.90;;;;;;5007031;28;20070;-78
2022/09/27 05:05:09;;;;;;;0.10;0.10;;;11.80;99.90;;;;;;5004877;28;20038;-77
2022/09/27 05:07:38;;;;;;;0.10;0.10;;;11.80;99.90;;;;;;5003395;28;20409;-77
2022/09/27 05:10:05;;;;;;;0.10;0.10;;;11.80;99.90;;;;;;5002654;28;20050;-77
2022/09/27 05:12:32;;;;;;;0.10;0.10;;;11.90;99.90;;;;;;5003045;28;20196;-78
2022/09/27 05:14:58;;;;;;;0.17;0.17;;;11.90;99.90;;;;;;5004763;28;20033;-77
2022/09/27 05:17:25;;;;;;;25.65;12.65;;;11.90;99.90;;;;;;5002685;28;20285;-77
2022/09/27 05:19:51;;;;;;;0.10;0.10;;;11.90;99.90;;;;;;5003970;28;20226;-77
2022/09/27 05:22:18;;;;;;;0.10;0.10;;;12.00;99.90;;;;;;5004041;28;20214;-77
2022/09/27 05:24:44;;;;;;;0.10;0.10;;;12.00;99.90;;;;;;5002356;28;20080;-77
2022/09/27 05:27:13;;;;;;;0.10;0.10;;;12.00;99.90;;;;;;5003838;28;20371;-77
2022/09/27 05:29:39;;;;;;;0.10;0.10;;;12.00;99.90;;;;;;5008768;28;20037;-78
2022/09/27 05:32:04;;;;;;;0.10;0.10;;;12.00;99.90;;;;;;5008163;28;20525;-77
2022/09/27 05:34:31;;;;;;;0.10;0.10;;;12.00;99.90;;;;;;5005943;28;20104;-78
2022/09/27 05:36:57;;;;;;;0.20;0.20;;;12.00;99.90;;;;;;5007599;28;20513;-77
2022/09/27 05:39:23;;;;;;;0.10;0.10;;;12.00;99.90;;;;;;5000329;28;20689;-77
2022/09/27 05:41:49;;;;;;;0.10;0.10;;;12.10;99.90;;;;;;5003563;28;20090;-77
2022/09/27 05:44:16;;;;;;;0.10;0.10;;;12.10;99.90;;;;;;5002385;28;20050;-78
2022/09/27 05:46:42;;;;;;;0.55;0.55;;;11.20;99.90;;;;;;5003218;28;20444;-78
2022/09/27 05:49:07;;;;;;;0.20;0.20;;;12.10;99.90;;;;;;5003764;28;20366;-78
2022/09/27 05:51:35;;;;;;;0.40;0.40;;;12.20;99.90;;;;;;5003498;28;20025;-77
2022/09/27 05:54:01;;;;;;;0.10;0.10;;;12.20;99.90;;;;;;5002121;28;20026;-79
2022/09/27 05:56:27;;;;;;;0.50;0.50;;;12.30;99.90;;;;;;5003834;28;20236;-77
2022/09/27 05:58:53;;;;;;;0.10;0.10;;;12.30;99.90;;;;;;5001157;28;20388;-77
2022/09/27 06:01:19;;;;;;;0.10;0.10;;;12.40;99.90;;;;;;5000029;28;20022;-78
2022/09/27 06:03:46;;;;;;;0.10;0.10;;;12.40;99.90;;;;;;4999672;28;20029;-77
2022/09/27 06:06:14;;;;;;;0.95;0.95;;;12.40;99.90;;;;;;4997618;28;20091;-78
2022/09/27 06:08:40;;;;;;;0.10;0.10;;;12.50;99.90;;;;;;5001234;28;20689;-80
2022/09/27 06:11:08;;;;;;;0.10;0.10;;;12.60;99.90;;;;;;4999863;28;20050;-78
2022/09/27 06:13:35;;;;;;;2.58;2.47;;;12.70;99.90;;;;;;4999072;28;20026;-87
2022/09/27 06:16:02;;;;;;;0.10;0.10;;;12.80;99.90;;;;;;4998553;28;20230;-78
2022/09/27 06:18:31;;;;;;;0.10;0.10;;;12.90;99.90;;;;;;4998707;28;20040;-78
2022/09/27 06:21:02;;;;;;;0.10;0.10;;;13.00;99.90;;;;;;4998512;28;20029;-82
2022/09/27 06:23:28;;;;;;;0.10;0.10;;;13.20;99.90;;;;;;4998851;28;20025;-78
2022/09/27 06:25:54;;;;;;;0.20;0.20;;;15.00;99.90;;;;;;4998677;28;20406;-79
2022/09/27 06:28:21;;;;;;;0.38;0.38;;;13.50;99.90;;;;;;4997329;28;20109;-78
2022/09/27 06:30:49;;;;;;;0.10;0.10;;;13.60;99.90;;;;;;4997527;28;20041;-79
2022/09/27 06:33:18;;;;;;;0.10;0.10;;;13.70;99.90;;;;;;4998956;28;20022;-79
2022/09/27 06:35:45;;;;;;;0.50;0.50;;;13.80;99.90;;;;;;4998450;28;20536;-79
2022/09/27 06:38:14;;;;;;;0.10;0.10;;;13.90;99.90;;;;;;4997008;28;20448;-78
2022/09/27 06:40:44;;;;;;;0.10;0.10;;;13.90;99.90;;;;;;4996961;28;20319;-78
2022/09/27 06:43:16;;;;;;;1.38;1.30;;;13.90;99.90;;;;;;4996835;28;20053;-77
2022/09/27 06:45:42;;;;;;;0.10;0.10;;;13.90;99.90;;;;;;4999416;28;20337;-79
2022/09/27 06:48:11;;;;;;;0.10;0.10;;;14.00;99.90;;;;;;4998035;28;20030;-79
2022/09/27 06:50:39;;;;;;;0.10;0.10;;;14.10;99.90;;;;;;4996824;28;20030;-78
2022/09/27 06:53:08;;;;;;;0.10;0.10;;;14.10;99.90;;;;;;4997711;28;20033;-78
2022/09/27 06:55:33;;;;;;;0.10;0.10;;;14.20;99.90;;;;;;4997958;28;20034;-80
2022/09/27 07:00:48;;;;;;;0.10;0.10;;;14.40;99.90;;;;;;4998445;28;20547;-85
2022/09/27 07:03:14;;;;;;;0.10;0.10;;;13.20;99.90;;;;;;4998145;28;20220;-77
2022/09/27 07:05:41;;;;;;;0.10;0.10;;;14.60;99.90;;;;;;4998804;28;20113;-78
2022/09/27 07:08:10;;;;;;;0.10;0.10;;;14.70;99.90;;;;;;4998103;28;20026;-83
2022/09/27 07:10:37;;;;;;;0.10;0.10;;;14.70;99.90;;;;;;4996820;28;20751;-79
2022/09/27 07:13:06;;;;;;;1.85;1.75;;;14.90;99.90;;;;;;4996825;28;20022;-87
2022/09/27 07:15:35;;;;;;;0.10;0.10;;;15.10;99.90;;;;;;4998767;28;20030;-77
2022/09/27 07:18:01;;;;;;;0.10;0.10;;;15.30;99.90;;;;;;4997041;28;20088;-84
2022/09/27 07:20:28;;;;;;;0.20;0.20;;;15.40;99.90;;;;;;4995883;28;20612;-78
2022/09/27 07:22:54;;;;;;;0.10;0.10;;;15.50;99.90;;;;;;4997257;28;20053;-78
2022/09/27 07:25:20;;;;;;;0.10;0.10;;;15.50;99.90;;;;;;4997998;28;20022;-79
2022/09/27 07:27:49;;;;;;;0.10;0.10;;;15.60;99.90;;;;;;4997881;28;20058;-77
2022/09/27 07:30:15;;;;;;;0.30;0.30;;;15.60;99.90;;;;;;4997868;28;20504;-79
2022/09/27 07:32:42;;;;;;;0.10;0.10;;;15.60;99.90;;;;;;4997402;28;20335;-79
2022/09/27 07:35:09;;;;;;;0.10;0.10;;;15.80;99.90;;;;;;5000501;28;20030;-78
2022/09/27 07:37:36;;;;;;;0.75;0.75;;;15.90;99.90;;;;;;5001683;28;20030;-81
2022/09/27 07:40:06;;;;;;;0.10;0.10;;;16.20;99.90;;;;;;5000864;28;20026;-78
2022/09/27 07:42:32;;;;;;;0.10;0.10;;;16.50;99.90;;;;;;4999830;28;20018;-80
2022/09/27 07:44:58;;;;;;;0.10;0.10;;;16.90;99.90;;;;;;4998438;28;20022;-80
2022/09/27 07:47:26;;;;;;;11.60;7.32;;;17.30;99.90;;;;;;4996972;28;20060;-80
2022/09/27 07:49:52;;;;;;;1.13;1.13;;;17.40;99.90;;;;;;5001559;28;20032;-78
2022/09/27 07:52:18;;;;;;;0.10;0.10;;;17.60;99.90;;;;;;5000478;28;20369;-78
2022/09/27 07:54:45;;;;;;;0.10;0.10;;;18.00;99.90;;;;;;5001363;28;20038;-77
2022/09/27 07:57:12;;;;;;;0.35;0.35;;;17.20;99.90;;;;;;5001711;28;20033;-80
2022/09/27 07:59:38;;;;;;;0.90;0.90;;;17.40;99.90;;;;;;5002058;28;20104;-78
2022/09/27 08:02:04;;;;;;;0.10;0.10;;;17.40;99.90;;;;;;5001381;28;20606;-77
2022/09/27 08:04:32;;;;;;;0.10;0.10;;;17.40;99.90;;;;;;5001587;28;20088;-83
2022/09/27 08:06:58;;;;;;;0.20;0.20;;;17.50;99.90;;;;;;5001051;28;20022;-78
2022/09/27 08:09:25;;;;;;;0.10;0.10;;;17.50;99.90;;;;;;5001251;28;20037;-80
2022/09/27 08:11:51;;;;;;;0.10;0.10;;;17.60;99.90;;;;;;5000145;28;20481;-78
2022/09/27 08:14:17;;;;;;;0.10;0.10;;;17.60;99.90;;;;;;5001301;28;20049;-78
2022/09/27 08:16:43;;;;;;;0.10;0.10;;;17.90;99.90;;;;;;5002099;28;20041;-78
2022/09/27 08:19:10;;;;;;;0.10;0.10;;;18.10;99.90;;;;;;5001063;28;20018;-78
2022/09/27 08:21:36;;;;;;;0.10;0.10;;;18.70;99.90;;;;;;5001014;28;20030;-79
2022/09/27 08:24:02;;;;;;;0.55;0.55;;;18.40;99.90;;;;;;5000835;28;20375;-78
2022/09/27 08:26:28;;;;;;;0.10;0.10;;;18.50;99.90;;;;;;5001010;28;20049;-78
2022/09/27 08:28:54;;;;;;;2.63;2.17;;;18.40;99.90;;;;;;4999597;28;20022;-79
2022/09/27 08:31:20;;;;;;;0.10;0.10;;;18.40;99.90;;;;;;5001305;28;20105;-78
2022/09/27 08:33:50;;;;;;;0.10;0.10;;;18.40;99.90;;;;;;5001048;28;20524;-78
2022/09/27 08:36:16;;;;;;;0.10;0.10;;;18.60;99.90;;;;;;5000832;28;20486;-78
2022/09/27 08:38:42;;;;;;;1.33;1.27;;;19.00;99.90;;;;;;5001022;28;20026;-79
2022/09/27 08:41:28;;;;;;;0.10;0.10;;;19.30;99.90;;;;;;4999989;28;20026;-79
2022/09/27 08:44:12;;;;;;;0.75;0.73;;;19.70;99.90;;;;;;4999398;28;20025;-78
2022/09/27 08:46:52;;;;;;;0.10;0.10;;;20.00;99.90;;;;;;5002164;28;20291;-78
2022/09/27 08:49:18;;;;;;;0.10;0.10;;;20.00;99.90;;;;;;4998872;28;20037;-79
2022/09/27 08:51:52;;;;;;;1.70;1.60;;;20.10;99.90;;;;;;5000500;28;20334;-78
2022/09/27 08:54:28;;;;;;;0.10;0.10;;;19.60;99.90;;;;;;5000145;28;20525;-78
2022/09/27 08:57:07;;;;;;;0.10;0.10;;;22.60;99.90;;;;;;5001593;28;20045;-79
2022/09/27 08:59:39;;;;;;;0.00;0.00;;;20.20;99.90;;;;;;5001396;28;20030;-78
2022/09/27 09:02:23;;;;;;;0.10;0.10;;;20.10;99.90;;;;;;5001214;28;20463;-80
2022/09/27 09:04:54;;;;;;;0.10;0.10;;;20.00;99.90;;;;;;4999705;28;20044;-78
2022/09/27 09:07:35;;;;;;;0.77;0.77;;;19.90;99.90;;;;;;5001405;28;20030;-79
2022/09/27 09:10:00;;;;;;;2.20;2.10;;;21.30;99.90;;;;;;4999816;28;20057;-78
2022/09/27 09:12:48;;;;;;;0.10;0.10;;;19.30;99.90;;;;;;4998247;28;20034;-77
2022/09/27 09:15:29;;;;;;;2.88;2.67;;;19.10;99.90;;;;;;4998084;28;20097;-78
2022/09/27 09:18:15;;;;;;;3.95;3.72;;;18.50;99.90;;;;;;5001158;28;20026;-77
2022/09/27 09:20:54;;;;;;;0.20;0.20;;;18.50;99.90;;;;;;5000369;28;20053;-84
2022/09/27 09:23:47;;;;;;;0.20;0.20;;;16.90;99.90;;;;;;4998518;28;20054;-78
2022/09/27 09:26:30;;;;;;;0.17;0.17;;;17.90;99.90;;;;;;4999628;28;20025;-78
2022/09/27 09:29:23;;;;;;;0.55;0.55;;;17.60;99.90;;;;;;4999666;28;20117;-78
2022/09/27 09:32:28;;;;;;;1.08;1.08;;;17.10;99.90;;;;;;4998847;28;20053;-77
2022/09/27 09:35:05;;;;;;;0.35;0.35;;;16.60;99.90;;;;;;4999392;28;20056;-77
2022/09/27 09:37:46;;;;;;;0.10;0.10;;;16.50;99.90;;;;;;4997617;28;20589;-77
2022/09/27 09:40:30;;;;;;;4.80;3.53;;;16.40;99.90;;;;;;4999250;28;20026;-77
2022/09/27 09:43:30;;;;;;;0.10;0.10;;;14.00;99.90;;;;;;4999346;28;20460;-77
2022/09/27 09:46:16;;;;;;;6.28;3.63;;;16.10;99.90;;;;;;4997853;28;20180;-78
2022/09/27 09:48:50;;;;;;;0.10;0.10;;;15.90;99.90;;;;;;4997917;28;20037;-77
2022/09/27 09:51:22;;;;;;;0.10;0.10;;;15.40;99.90;;;;;;4997620;28;20187;-77
2022/09/27 09:53:57;;;;;;;4.07;3.60;;;15.60;99.90;;;;;;4998496;28;20109;-77
2022/09/27 09:56:32;;;;;;;0.10;0.10;;;15.50;99.90;;;;;;4998584;28;20026;-79
2022/09/27 09:59:13;;;;;;;0.38;0.38;;;15.30;99.90;;;;;;4998852;28;20591;-77
2022/09/27 10:01:42;;;;;;;0.25;0.25;;;15.20;99.90;;;;;;4997717;28;20297;-76
2022/09/27 10:04:19;;;;;;;0.20;0.20;;;15.60;99.90;;;;;;5000023;28;20319;-77
2022/09/27 10:06:45;;;;;;;0.10;0.10;;;14.90;99.90;;;;;;4999297;28;20018;-76
2022/09/27 10:09:15;;;;;;;3.58;3.25;;;14.70;99.90;;;;;;4998336;28;20025;-76
2022/09/27 10:11:43;;;;;;;0.15;0.15;;;14.50;99.90;;;;;;4997815;28;20514;-77
2022/09/27 10:14:13;;;;;;;0.10;0.10;;;14.40;99.90;;;;;;4998718;28;20330;-84
2022/09/27 10:16:42;;;;;;;0.10;0.10;;;14.30;99.90;;;;;;4996950;28;20034;-77
2022/09/27 10:19:09;;;;;;;0.10;0.10;;;14.20;99.90;;;;;;4996460;28;20218;-76
2022/09/27 10:21:41;;;;;;;0.10;0.10;;;14.10;99.90;;;;;;4998442;28;20018;-80
2022/09/27 10:24:19;;;;;;;0.10;0.10;;;14.10;99.90;;;;;;4996877;28;20045;-77
2022/09/27 10:26:47;;;;;;;0.10;0.10;;;14.50;99.90;;;;;;4996451;28;20346;-78
2022/09/27 10:29:19;;;;;;;0.28;0.28;;;14.30;99.90;;;;;;4998284;28;20025;-76
2022/09/27 10:31:49;;;;;;;0.10;0.10;;;14.60;99.90;;;;;;4997079;28;20385;-76
2022/09/27 10:34:25;;;;;;;0.10;0.10;;;14.80;99.90;;;;;;4997161;28;20109;-79
2022/09/27 10:37:20;;;;;;;0.20;0.20;;;15.10;99.90;;;;;;4998505;28;20034;-76
2022/09/27 10:39:49;;;;;;;0.10;0.10;;;15.60;99.90;;;;;;4997822;28;20402;-76
2022/09/27 10:42:37;;;;;;;0.10;0.10;;;15.70;99.90;;;;;;4998828;28;20368;-77
2022/09/27 10:45:26;;;;;;;0.10;0.10;;;16.00;99.90;;;;;;4998478;28;20250;-76
2022/09/27 10:47:51;;;;;;;0.10;0.10;;;16.10;99.90;;;;;;4996544;28;20018;-76
2022/09/27 10:50:25;;;;;;;0.20;0.20;;;16.30;99.90;;;;;;4998864;28;20083;-76
2022/09/27 10:53:11;;;;;;;;;;;16.30;99.90;;;;;;4998511;28;20310;-76
2022/09/27 10:55:38;;;;;;;0.10;0.10;;;16.50;99.90;;;;;;4997938;28;19917;-76
2022/09/27 10:58:07;;;;;;;0.10;0.10;;;16.70;99.90;;;;;;4996782;28;20034;-75
2022/09/27 11:00:35;;;;;;;0.10;0.10;;;17.20;99.90;;;;;;4998361;28;20021;-81
2022/09/27 11:03:15;;;;;;;0.10;0.10;;;17.90;99.90;;;;;;4997939;28;20026;-76
2022/09/27 11:05:42;;;;;;;0.10;0.10;;;18.40;99.90;;;;;;4997589;28;20049;-77
2022/09/27 11:08:32;;;;;;;0.10;0.10;;;18.50;99.90;;;;;;4997881;28;20107;-76
2022/09/27 11:11:03;;;;;;;0.10;0.10;;;18.10;99.90;;;;;;4997730;28;20508;-75
2022/09/27 11:13:31;;;;;;;0.10;0.10;;;18.20;99.90;;;;;;4998290;28;20504;-76
2022/09/27 11:16:00;;;;;;;0.10;0.10;;;18.10;99.90;;;;;;4998073;28;20034;-81
2022/09/27 11:18:45;;;;;;;0.10;0.10;;;17.90;99.90;;;;;;4998126;28;20030;-75
2022/09/27 11:21:47;;;;;;;0.10;0.10;;;17.60;99.90;;;;;;4998033;28;20030;-76
2022/09/27 11:24:47;;;;;;;0.10;0.10;;;17.40;99.90;;;;;;5001402;28;20025;-76
2022/09/27 11:27:34;;;;;;;0.10;0.10;;;17.10;99.90;;;;;;5001714;28;20294;-77
2022/09/27 11:30:19;;;;;;;0.10;0.10;;;16.90;99.90;;;;;;5001719;28;20037;-76
2022/09/27 11:33:05;;;;;;;0.10;0.10;;;16.80;99.90;;;;;;5002022;28;20030;-84
2022/09/27 11:36:12;;;;;;;2.58;2.47;;;16.90;99.90;;;;;;5002169;28;20208;-78
2022/09/27 11:38:56;;;;;;;1.10;0.98;;;17.10;99.90;;;;;;5001651;28;20112;-76
2022/09/27 11:41:58;;;;;;;0.30;0.30;;;17.20;99.90;;;;;;5002150;28;20022;-78
2022/09/27 11:44:42;;;;;;;0.10;0.10;;;17.40;99.90;;;;;;5000448;28;20267;-76
2022/09/27 11:47:34;;;;;;;0.10;0.10;;;17.60;99.90;;;;;;5001388;28;20518;-77
2022/09/27 11:50:21;;;;;;;0.10;0.10;;;17.70;99.90;;;;;;5001397;28;20026;-77
2022/09/27 11:52:49;;;;;;;0.10;0.10;;;17.80;99.90;;;;;;5001212;28;20026;-76
2022/09/27 11:55:22;;;;;;;0.10;0.10;;;18.00;99.90;;;;;;4999774;28;20034;-77
2022/09/27 11:58:08;;;;;;;0.00;0.00;;;18.10;99.90;;;;;;5001741;28;20010;-77
2022/09/27 12:01:06;;;;;;;0.10;0.10;;;18.30;99.90;;;;;;5001531;28;20049;-77
2022/09/27 12:03:38;;;;;;;0.75;0.65;;;18.30;99.90;;;;;;5001256;28;20042;-77
2022/09/27 12:06:07;;;;;;;0.10;0.10;;;18.40;99.90;;;;;;4999883;28;20113;-77
2022/09/27 12:08:32;;;;;;;0.88;0.88;;;18.50;99.90;;;;;;5000891;28;20030;-77
2022/09/27 12:11:32;;;;;;;0.75;0.75;;;18.50;99.90;;;;;;4999397;28;20432;-77
2022/09/27 12:14:03;;;;;;;0.10;0.10;;;18.50;99.90;;;;;;5000909;28;20393;-77
2022/09/27 12:16:31;;;;;;;0.10;0.10;;;18.70;99.90;;;;;;5000899;28;20497;-76
2022/09/27 12:18:58;;;;;;;0.10;0.10;;;18.70;99.90;;;;;;5000775;28;20210;-80
2022/09/27 12:21:25;;;;;;;0.10;0.10;;;19.10;99.90;;;;;;5002837;28;20242;-77
2022/09/27 12:23:58;;;;;;;0.10;0.10;;;19.50;99.90;;;;;;5001956;28;20038;-77
2022/09/27 12:26:39;;;;;;;0.20;0.20;;;19.70;99.90;;;;;;5003223;28;20053;-77
2022/09/27 12:29:17;;;;;;;1.23;1.13;;;20.00;99.90;;;;;;5002238;28;20018;-77
2022/09/27 12:32:00;;;;;;;0.00;0.00;;;20.40;99.90;;;;;;5000764;28;20029;-77
2022/09/27 12:34:41;;;;;;;0.17;0.17;;;20.90;99.90;;;;;;5001489;28;20032;-78
2022/09/27 12:37:24;;;;;;;0.10;0.10;;;21.20;99.90;;;;;;5003105;28;20042;-78
2022/09/27 12:40:01;;;;;;;0.10;0.10;;;21.90;99.90;;;;;;5001461;28;20026;-78
2022/09/27 12:42:54;;;;;;;0.05;0.05;;;22.70;99.90;;;;;;5000560;28;20053;-77
2022/09/27 12:45:32;;;;;;;0.00;0.00;;;23.20;99.90;;;;;;5002494;28;20018;-79
2022/09/27 12:48:33;;;;;;;0.00;0.00;;;23.70;99.20;;;;;;5000073;28;20549;-76
2022/09/27 12:51:06;;;;;;;0.00;0.00;;;23.80;97.10;;;;;;5000037;28;20050;-75
2022/09/27 12:53:43;;;;;;;0.00;0.00;;;23.90;96.20;;;;;;4999294;28;20092;-75
2022/09/27 12:56:42;;;;;;;0.00;0.00;;;23.90;97.00;;;;;;4999334;28;20044;-76
2022/09/27 12:59:42;;;;;;;0.00;0.00;;;24.00;97.50;;;;;;4998819;28;20168;-77
2022/09/27 13:02:26;;;;;;;0.10;0.10;;;24.30;96.30;;;;;;5001267;28;20026;-76
2022/09/27 13:05:30;;;;;;;0.10;0.10;;;24.50;93.80;;;;;;5001051;28;20056;-76
2022/09/27 13:08:33;;;;;;;0.00;0.00;;;24.20;93.80;;;;;;4999306;28;20500;-76
2022/09/27 13:11:28;;;;;;;0.00;0.00;;;24.20;94.20;;;;;;5000737;28;20049;-76
2022/09/27 13:13:55;;;;;;;0.00;0.00;;;24.20;93.80;;;;;;4998573;28;20038;-77
2022/09/27 13:16:22;;;;;;;0.00;0.00;;;;;;;;;;4998420;28;20085;-76
2022/09/27 13:18:48;;;;;;;0.00;0.00;;;24.80;91.90;;;;;;5000548;28;20254;-77
2022/09/27 13:21:46;;;;;;;0.00;0.00;;;25.10;91.70;;;;;;5000383;28;20116;-78
2022/09/27 13:24:40;;;;;;;0.00;0.00;;;25.00;90.60;;;;;;5001647;28;20017;-77